sensor_id;sensor_type;location;lat;lon;timestamp;P1;durP1;ratioP1;P2;durP2;ratioP2
7267;SDS011;3675;43.276;27.962;2024-03-02T00:00:22;15.63;;;5.43;;
7267;SDS011;3675;43.276;27.962;2024-03-02T00:02:54;17.90;;;6.75;;
7267;SDS011;3675;43.276;27.962;2024-03-02T00:05:25;14.60;;;5.53;;
7267;SDS011;3675;43.276;27.962;2024-03-02T00:07:58;14.57;;;5.75;;
7267;SDS011;3675;43.276;27.962;2024-03-02T00:10:37;18.10;;;6.22;;
7267;SDS011;3675;43.276;27.962;2024-03-02T00:13:09;12.45;;;5.93;;
7267;SDS011;3675;43.276;27.962;2024-03-02T00:15:41;15.45;;;5.65;;
7267;SDS011;3675;43.276;27.962;2024-03-02T00:18:18;14.38;;;5.72;;
7267;SDS011;3675;43.276;27.962;2024-03-02T00:20:52;17.20;;;6.35;;
7267;SDS011;3675;43.276;27.962;2024-03-02T00:23:27;12.57;;;5.65;;
7267;SDS011;3675;43.276;27.962;2024-03-02T00:26:01;11.30;;;5.78;;
7267;SDS011;3675;43.276;27.962;2024-03-02T00:28:33;11.93;;;5.10;;
7267;SDS011;3675;43.276;27.962;2024-03-02T00:31:05;12.48;;;5.65;;
7267;SDS011;3675;43.276;27.962;2024-03-02T00:33:40;12.75;;;5.35;;
7267;SDS011;3675;43.276;27.962;2024-03-02T00:36:13;20.95;;;5.57;;
7267;SDS011;3675;43.276;27.962;2024-03-02T00:38:49;15.85;;;5.55;;
7267;SDS011;3675;43.276;27.962;2024-03-02T00:41:21;16.40;;;6.22;;
7267;SDS011;3675;43.276;27.962;2024-03-02T00:44:00;12.20;;;5.10;;
7267;SDS011;3675;43.276;27.962;2024-03-02T00:46:34;18.40;;;5.90;;
7267;SDS011;3675;43.276;27.962;2024-03-02T00:49:05;13.73;;;6.03;;
7267;SDS011;3675;43.276;27.962;2024-03-02T00:51:49;13.68;;;5.50;;
7267;SDS011;3675;43.276;27.962;2024-03-02T00:54:25;10.52;;;4.85;;
7267;SDS011;3675;43.276;27.962;2024-03-02T00:56:56;14.63;;;5.05;;
7267;SDS011;3675;43.276;27.962;2024-03-02T00:59:27;13.93;;;4.78;;
7267;SDS011;3675;43.276;27.962;2024-03-02T01:01:59;8.63;;;4.65;;
7267;SDS011;3675;43.276;27.962;2024-03-02T01:04:29;10.18;;;5.07;;
7267;SDS011;3675;43.276;27.962;2024-03-02T01:07:00;11.15;;;4.15;;
7267;SDS011;3675;43.276;27.962;2024-03-02T01:09:34;18.42;;;5.30;;
7267;SDS011;3675;43.276;27.962;2024-03-02T01:12:05;10.05;;;4.13;;
7267;SDS011;3675;43.276;27.962;2024-03-02T01:14:37;17.70;;;5.13;;
7267;SDS011;3675;43.276;27.962;2024-03-02T01:17:08;11.90;;;5.65;;
7267;SDS011;3675;43.276;27.962;2024-03-02T01:19:40;13.43;;;5.43;;
7267;SDS011;3675;43.276;27.962;2024-03-02T01:22:12;10.38;;;4.65;;
7267;SDS011;3675;43.276;27.962;2024-03-02T01:24:46;12.85;;;5.65;;
7267;SDS011;3675;43.276;27.962;2024-03-02T01:27:17;12.88;;;5.93;;
7267;SDS011;3675;43.276;27.962;2024-03-02T01:29:48;13.07;;;4.57;;
7267;SDS011;3675;43.276;27.962;2024-03-02T01:32:19;12.60;;;5.07;;
7267;SDS011;3675;43.276;27.962;2024-03-02T01:34:50;19.50;;;5.70;;
7267;SDS011;3675;43.276;27.962;2024-03-02T01:37:20;11.68;;;5.00;;
7267;SDS011;3675;43.276;27.962;2024-03-02T01:39:55;11.48;;;4.53;;
7267;SDS011;3675;43.276;27.962;2024-03-02T01:42:26;11.27;;;4.88;;
7267;SDS011;3675;43.276;27.962;2024-03-02T01:44:58;12.95;;;4.68;;
7267;SDS011;3675;43.276;27.962;2024-03-02T01:47:29;13.45;;;4.90;;
7267;SDS011;3675;43.276;27.962;2024-03-02T01:50:00;14.15;;;5.28;;
7267;SDS011;3675;43.276;27.962;2024-03-02T01:52:31;16.85;;;5.25;;
7267;SDS011;3675;43.276;27.962;2024-03-02T01:55:05;17.27;;;5.68;;
7267;SDS011;3675;43.276;27.962;2024-03-02T01:57:38;12.77;;;4.82;;
7267;SDS011;3675;43.276;27.962;2024-03-02T02:00:09;14.50;;;5.55;;
7267;SDS011;3675;43.276;27.962;2024-03-02T02:02:41;11.63;;;5.38;;
7267;SDS011;3675;43.276;27.962;2024-03-02T02:05:13;9.80;;;5.15;;
7267;SDS011;3675;43.276;27.962;2024-03-02T02:07:44;13.73;;;5.35;;
7267;SDS011;3675;43.276;27.962;2024-03-02T02:10:18;10.93;;;4.85;;
7267;SDS011;3675;43.276;27.962;2024-03-02T02:12:49;14.85;;;5.65;;
7267;SDS011;3675;43.276;27.962;2024-03-02T02:15:24;10.82;;;5.05;;
7267;SDS011;3675;43.276;27.962;2024-03-02T02:17:56;12.50;;;5.60;;
7267;SDS011;3675;43.276;27.962;2024-03-02T02:20:27;13.40;;;5.15;;
7267;SDS011;3675;43.276;27.962;2024-03-02T02:22:58;12.82;;;4.82;;
7267;SDS011;3675;43.276;27.962;2024-03-02T02:25:30;10.98;;;5.82;;
7267;SDS011;3675;43.276;27.962;2024-03-02T02:28:01;13.02;;;5.68;;
7267;SDS011;3675;43.276;27.962;2024-03-02T02:30:32;10.65;;;5.28;;
7267;SDS011;3675;43.276;27.962;2024-03-02T02:33:03;16.77;;;6.53;;
7267;SDS011;3675;43.276;27.962;2024-03-02T02:35:35;7.45;;;4.78;;
7267;SDS011;3675;43.276;27.962;2024-03-02T02:38:08;17.70;;;6.00;;
7267;SDS011;3675;43.276;27.962;2024-03-02T02:40:39;13.88;;;5.97;;
7267;SDS011;3675;43.276;27.962;2024-03-02T02:43:10;16.33;;;5.75;;
7267;SDS011;3675;43.276;27.962;2024-03-02T02:45:41;18.25;;;6.53;;
7267;SDS011;3675;43.276;27.962;2024-03-02T02:48:12;14.23;;;6.32;;
7267;SDS011;3675;43.276;27.962;2024-03-02T02:50:43;15.27;;;5.93;;
7267;SDS011;3675;43.276;27.962;2024-03-02T02:53:17;12.07;;;5.88;;
7267;SDS011;3675;43.276;27.962;2024-03-02T02:55:48;14.57;;;6.50;;
7267;SDS011;3675;43.276;27.962;2024-03-02T02:58:19;16.02;;;5.93;;
7267;SDS011;3675;43.276;27.962;2024-03-02T03:00:50;19.40;;;7.07;;
7267;SDS011;3675;43.276;27.962;2024-03-02T03:03:24;20.83;;;6.72;;
7267;SDS011;3675;43.276;27.962;2024-03-02T03:05:55;20.52;;;6.80;;
7267;SDS011;3675;43.276;27.962;2024-03-02T03:08:28;15.18;;;6.13;;
7267;SDS011;3675;43.276;27.962;2024-03-02T03:10:59;17.65;;;7.05;;
7267;SDS011;3675;43.276;27.962;2024-03-02T03:13:31;17.88;;;6.28;;
7267;SDS011;3675;43.276;27.962;2024-03-02T03:16:02;15.98;;;7.53;;
7267;SDS011;3675;43.276;27.962;2024-03-02T03:18:33;16.77;;;7.32;;
7267;SDS011;3675;43.276;27.962;2024-03-02T03:21:05;15.57;;;7.47;;
7267;SDS011;3675;43.276;27.962;2024-03-02T03:23:39;12.02;;;6.63;;
7267;SDS011;3675;43.276;27.962;2024-03-02T03:26:10;18.98;;;8.10;;
7267;SDS011;3675;43.276;27.962;2024-03-02T03:28:40;17.58;;;6.75;;
7267;SDS011;3675;43.276;27.962;2024-03-02T03:31:11;17.10;;;6.95;;
7267;SDS011;3675;43.276;27.962;2024-03-02T03:33:42;15.25;;;7.85;;
7267;SDS011;3675;43.276;27.962;2024-03-02T03:36:13;16.23;;;6.82;;
7267;SDS011;3675;43.276;27.962;2024-03-02T03:38:47;17.15;;;6.28;;
7267;SDS011;3675;43.276;27.962;2024-03-02T03:41:18;17.55;;;7.20;;
7267;SDS011;3675;43.276;27.962;2024-03-02T03:43:49;12.70;;;5.88;;
7267;SDS011;3675;43.276;27.962;2024-03-02T03:46:20;18.17;;;6.57;;
7267;SDS011;3675;43.276;27.962;2024-03-02T03:48:51;15.43;;;6.90;;
7267;SDS011;3675;43.276;27.962;2024-03-02T03:51:23;18.92;;;7.15;;
7267;SDS011;3675;43.276;27.962;2024-03-02T03:53:56;13.63;;;6.53;;
7267;SDS011;3675;43.276;27.962;2024-03-02T03:56:27;15.73;;;6.25;;
7267;SDS011;3675;43.276;27.962;2024-03-02T03:58:58;13.93;;;6.03;;
7267;SDS011;3675;43.276;27.962;2024-03-02T04:01:29;19.25;;;7.25;;
7267;SDS011;3675;43.276;27.962;2024-03-02T04:04:01;13.77;;;6.72;;
7267;SDS011;3675;43.276;27.962;2024-03-02T04:06:32;14.05;;;5.53;;
7267;SDS011;3675;43.276;27.962;2024-03-02T04:09:05;23.20;;;7.30;;
7267;SDS011;3675;43.276;27.962;2024-03-02T04:11:36;13.90;;;6.25;;
7267;SDS011;3675;43.276;27.962;2024-03-02T04:14:08;14.40;;;6.78;;
7267;SDS011;3675;43.276;27.962;2024-03-02T04:16:39;12.27;;;6.10;;
7267;SDS011;3675;43.276;27.962;2024-03-02T04:19:10;14.60;;;6.40;;
7267;SDS011;3675;43.276;27.962;2024-03-02T04:21:42;15.13;;;7.15;;
7267;SDS011;3675;43.276;27.962;2024-03-02T04:24:15;16.95;;;7.47;;
7267;SDS011;3675;43.276;27.962;2024-03-02T04:26:46;18.50;;;7.45;;
7267;SDS011;3675;43.276;27.962;2024-03-02T04:29:17;17.73;;;8.35;;
7267;SDS011;3675;43.276;27.962;2024-03-02T04:31:48;20.15;;;7.05;;
7267;SDS011;3675;43.276;27.962;2024-03-02T04:34:19;19.45;;;7.13;;
7267;SDS011;3675;43.276;27.962;2024-03-02T04:36:50;21.23;;;7.78;;
7267;SDS011;3675;43.276;27.962;2024-03-02T04:39:23;17.17;;;6.97;;
7267;SDS011;3675;43.276;27.962;2024-03-02T04:41:55;19.33;;;6.55;;
7267;SDS011;3675;43.276;27.962;2024-03-02T04:44:26;20.55;;;7.70;;
7267;SDS011;3675;43.276;27.962;2024-03-02T04:46:57;20.05;;;8.25;;
7267;SDS011;3675;43.276;27.962;2024-03-02T04:49:27;17.52;;;7.22;;
7267;SDS011;3675;43.276;27.962;2024-03-02T04:51:59;19.10;;;7.90;;
7267;SDS011;3675;43.276;27.962;2024-03-02T04:54:32;17.50;;;7.35;;
7267;SDS011;3675;43.276;27.962;2024-03-02T04:57:23;16.77;;;6.18;;
7267;SDS011;3675;43.276;27.962;2024-03-02T04:59:51;16.08;;;6.47;;
7267;SDS011;3675;43.276;27.962;2024-03-02T05:02:22;15.02;;;5.90;;
7267;SDS011;3675;43.276;27.962;2024-03-02T05:04:54;13.00;;;6.60;;
7267;SDS011;3675;43.276;27.962;2024-03-02T05:07:25;10.55;;;5.40;;
7267;SDS011;3675;43.276;27.962;2024-03-02T05:09:58;15.40;;;5.95;;
7267;SDS011;3675;43.276;27.962;2024-03-02T05:12:29;15.80;;;6.53;;
7267;SDS011;3675;43.276;27.962;2024-03-02T05:15:22;10.70;;;6.25;;
7267;SDS011;3675;43.276;27.962;2024-03-02T05:17:54;14.23;;;6.22;;
7267;SDS011;3675;43.276;27.962;2024-03-02T05:20:25;12.90;;;5.20;;
7267;SDS011;3675;43.276;27.962;2024-03-02T05:22:56;17.45;;;6.80;;
7267;SDS011;3675;43.276;27.962;2024-03-02T05:25:30;16.92;;;6.65;;
7267;SDS011;3675;43.276;27.962;2024-03-02T05:28:02;11.95;;;6.15;;
7267;SDS011;3675;43.276;27.962;2024-03-02T05:30:34;15.75;;;6.13;;
7267;SDS011;3675;43.276;27.962;2024-03-02T05:33:05;18.20;;;6.53;;
7267;SDS011;3675;43.276;27.962;2024-03-02T05:35:36;15.05;;;6.25;;
7267;SDS011;3675;43.276;27.962;2024-03-02T05:38:06;16.08;;;6.32;;
7267;SDS011;3675;43.276;27.962;2024-03-02T05:40:40;11.38;;;5.97;;
7267;SDS011;3675;43.276;27.962;2024-03-02T05:43:11;17.42;;;6.90;;
7267;SDS011;3675;43.276;27.962;2024-03-02T05:45:42;16.88;;;6.60;;
7267;SDS011;3675;43.276;27.962;2024-03-02T05:48:13;18.27;;;7.13;;
7267;SDS011;3675;43.276;27.962;2024-03-02T05:50:44;14.57;;;6.38;;
7267;SDS011;3675;43.276;27.962;2024-03-02T05:53:15;11.73;;;6.25;;
7267;SDS011;3675;43.276;27.962;2024-03-02T05:55:49;12.32;;;5.88;;
7267;SDS011;3675;43.276;27.962;2024-03-02T05:58:23;13.88;;;6.90;;
7267;SDS011;3675;43.276;27.962;2024-03-02T06:01:04;10.52;;;6.68;;
7267;SDS011;3675;43.276;27.962;2024-03-02T06:03:35;19.35;;;7.10;;
7267;SDS011;3675;43.276;27.962;2024-03-02T06:06:06;14.88;;;6.22;;
7267;SDS011;3675;43.276;27.962;2024-03-02T06:08:38;18.77;;;7.22;;
7267;SDS011;3675;43.276;27.962;2024-03-02T06:11:11;18.67;;;6.72;;
7267;SDS011;3675;43.276;27.962;2024-03-02T06:13:42;14.52;;;6.22;;
7267;SDS011;3675;43.276;27.962;2024-03-02T06:16:13;14.48;;;6.45;;
7267;SDS011;3675;43.276;27.962;2024-03-02T06:18:44;15.65;;;7.53;;
7267;SDS011;3675;43.276;27.962;2024-03-02T06:21:15;16.00;;;6.75;;
7267;SDS011;3675;43.276;27.962;2024-03-02T06:23:46;23.25;;;12.82;;
7267;SDS011;3675;43.276;27.962;2024-03-02T06:26:20;14.80;;;9.63;;
7267;SDS011;3675;43.276;27.962;2024-03-02T06:28:52;12.90;;;7.85;;
7267;SDS011;3675;43.276;27.962;2024-03-02T06:31:23;14.48;;;6.45;;
7267;SDS011;3675;43.276;27.962;2024-03-02T06:33:54;12.95;;;7.03;;
7267;SDS011;3675;43.276;27.962;2024-03-02T06:36:25;15.65;;;8.82;;
7267;SDS011;3675;43.276;27.962;2024-03-02T06:38:56;17.05;;;7.95;;
7267;SDS011;3675;43.276;27.962;2024-03-02T06:41:30;16.60;;;7.38;;
7267;SDS011;3675;43.276;27.962;2024-03-02T06:44:01;13.65;;;7.18;;
7267;SDS011;3675;43.276;27.962;2024-03-02T06:46:32;16.83;;;5.88;;
7267;SDS011;3675;43.276;27.962;2024-03-02T06:49:03;12.70;;;6.70;;
7267;SDS011;3675;43.276;27.962;2024-03-02T06:51:34;15.30;;;7.30;;
7267;SDS011;3675;43.276;27.962;2024-03-02T06:54:05;13.60;;;7.13;;
7267;SDS011;3675;43.276;27.962;2024-03-02T06:56:39;14.45;;;7.10;;
7267;SDS011;3675;43.276;27.962;2024-03-02T06:59:10;14.55;;;7.40;;
7267;SDS011;3675;43.276;27.962;2024-03-02T07:01:41;21.33;;;8.68;;
7267;SDS011;3675;43.276;27.962;2024-03-02T07:04:12;16.52;;;7.38;;
7267;SDS011;3675;43.276;27.962;2024-03-02T07:06:42;19.15;;;9.40;;
7267;SDS011;3675;43.276;27.962;2024-03-02T07:09:13;20.38;;;12.23;;
7267;SDS011;3675;43.276;27.962;2024-03-02T07:11:47;20.90;;;13.35;;
7267;SDS011;3675;43.276;27.962;2024-03-02T07:14:18;19.55;;;7.40;;
7267;SDS011;3675;43.276;27.962;2024-03-02T07:17:04;18.33;;;8.25;;
7267;SDS011;3675;43.276;27.962;2024-03-02T07:19:37;16.13;;;7.57;;
7267;SDS011;3675;43.276;27.962;2024-03-02T07:22:09;12.77;;;7.10;;
7267;SDS011;3675;43.276;27.962;2024-03-02T07:24:40;25.98;;;7.45;;
7267;SDS011;3675;43.276;27.962;2024-03-02T07:27:14;14.57;;;7.80;;
7267;SDS011;3675;43.276;27.962;2024-03-02T07:29:45;12.70;;;7.57;;
7267;SDS011;3675;43.276;27.962;2024-03-02T07:32:16;12.23;;;6.25;;
7267;SDS011;3675;43.276;27.962;2024-03-02T07:34:47;11.48;;;6.82;;
7267;SDS011;3675;43.276;27.962;2024-03-02T07:37:18;18.95;;;7.35;;
7267;SDS011;3675;43.276;27.962;2024-03-02T07:39:49;13.05;;;6.25;;
7267;SDS011;3675;43.276;27.962;2024-03-02T07:42:23;15.18;;;7.05;;
7267;SDS011;3675;43.276;27.962;2024-03-02T07:44:54;11.73;;;6.25;;
7267;SDS011;3675;43.276;27.962;2024-03-02T07:47:25;14.52;;;6.85;;
7267;SDS011;3675;43.276;27.962;2024-03-02T07:49:56;12.20;;;5.10;;
7267;SDS011;3675;43.276;27.962;2024-03-02T07:52:26;16.05;;;6.55;;
7267;SDS011;3675;43.276;27.962;2024-03-02T07:54:57;10.95;;;6.53;;
7267;SDS011;3675;43.276;27.962;2024-03-02T07:57:31;12.52;;;5.97;;
7267;SDS011;3675;43.276;27.962;2024-03-02T08:00:03;11.60;;;6.13;;
7267;SDS011;3675;43.276;27.962;2024-03-02T08:02:37;13.20;;;5.97;;
7267;SDS011;3675;43.276;27.962;2024-03-02T08:05:09;14.50;;;6.38;;
7267;SDS011;3675;43.276;27.962;2024-03-02T08:07:40;10.20;;;5.60;;
7267;SDS011;3675;43.276;27.962;2024-03-02T08:10:11;16.48;;;6.38;;
7267;SDS011;3675;43.276;27.962;2024-03-02T08:12:45;10.32;;;5.50;;
7267;SDS011;3675;43.276;27.962;2024-03-02T08:15:16;11.55;;;6.28;;
7267;SDS011;3675;43.276;27.962;2024-03-02T08:17:47;12.88;;;6.22;;
7267;SDS011;3675;43.276;27.962;2024-03-02T08:20:18;12.50;;;6.40;;
7267;SDS011;3675;43.276;27.962;2024-03-02T08:22:49;11.65;;;5.82;;
7267;SDS011;3675;43.276;27.962;2024-03-02T08:25:22;9.50;;;5.90;;
7267;SDS011;3675;43.276;27.962;2024-03-02T08:27:56;10.35;;;6.43;;
7267;SDS011;3675;43.276;27.962;2024-03-02T08:30:27;8.13;;;5.47;;
7267;SDS011;3675;43.276;27.962;2024-03-02T08:32:57;9.00;;;5.40;;
7267;SDS011;3675;43.276;27.962;2024-03-02T08:35:28;11.13;;;5.30;;
7267;SDS011;3675;43.276;27.962;2024-03-02T08:38:03;13.40;;;6.53;;
7267;SDS011;3675;43.276;27.962;2024-03-02T08:40:34;13.30;;;6.25;;
7267;SDS011;3675;43.276;27.962;2024-03-02T08:43:08;10.23;;;6.78;;
7267;SDS011;3675;43.276;27.962;2024-03-02T08:45:40;12.93;;;5.85;;
7267;SDS011;3675;43.276;27.962;2024-03-02T08:48:11;13.90;;;6.05;;
7267;SDS011;3675;43.276;27.962;2024-03-02T08:50:41;12.27;;;6.10;;
7267;SDS011;3675;43.276;27.962;2024-03-02T08:53:12;11.07;;;6.10;;
7267;SDS011;3675;43.276;27.962;2024-03-02T08:55:45;13.75;;;5.93;;
7267;SDS011;3675;43.276;27.962;2024-03-02T08:58:19;13.45;;;7.63;;
7267;SDS011;3675;43.276;27.962;2024-03-02T09:00:50;11.18;;;6.45;;
7267;SDS011;3675;43.276;27.962;2024-03-02T09:03:21;12.45;;;6.88;;
7267;SDS011;3675;43.276;27.962;2024-03-02T09:05:53;9.27;;;6.30;;
7267;SDS011;3675;43.276;27.962;2024-03-02T09:08:25;9.25;;;5.22;;
7267;SDS011;3675;43.276;27.962;2024-03-02T09:10:56;10.35;;;4.85;;
7267;SDS011;3675;43.276;27.962;2024-03-02T09:13:30;10.68;;;6.00;;
7267;SDS011;3675;43.276;27.962;2024-03-02T09:16:01;12.05;;;6.05;;
7267;SDS011;3675;43.276;27.962;2024-03-02T09:18:33;10.23;;;5.82;;
7267;SDS011;3675;43.276;27.962;2024-03-02T09:21:04;9.68;;;5.28;;
7267;SDS011;3675;43.276;27.962;2024-03-02T09:23:35;17.02;;;6.35;;
7267;SDS011;3675;43.276;27.962;2024-03-02T09:26:07;10.73;;;5.57;;
7267;SDS011;3675;43.276;27.962;2024-03-02T09:28:40;10.10;;;5.75;;
7267;SDS011;3675;43.276;27.962;2024-03-02T09:31:13;12.60;;;5.95;;
7267;SDS011;3675;43.276;27.962;2024-03-02T09:33:44;12.15;;;6.00;;
7267;SDS011;3675;43.276;27.962;2024-03-02T09:36:18;14.73;;;6.15;;
7267;SDS011;3675;43.276;27.962;2024-03-02T09:38:49;10.15;;;6.25;;
7267;SDS011;3675;43.276;27.962;2024-03-02T09:41:20;13.52;;;7.80;;
7267;SDS011;3675;43.276;27.962;2024-03-02T09:43:54;15.82;;;7.82;;
7267;SDS011;3675;43.276;27.962;2024-03-02T09:48:56;13.05;;;6.68;;
7267;SDS011;3675;43.276;27.962;2024-03-02T09:51:27;12.55;;;6.32;;
7267;SDS011;3675;43.276;27.962;2024-03-02T09:53:58;14.25;;;8.00;;
7267;SDS011;3675;43.276;27.962;2024-03-02T09:56:47;10.70;;;7.57;;
7267;SDS011;3675;43.276;27.962;2024-03-02T09:59:20;12.07;;;6.18;;
7267;SDS011;3675;43.276;27.962;2024-03-02T10:01:55;11.32;;;5.85;;
7267;SDS011;3675;43.276;27.962;2024-03-02T10:04:28;11.43;;;5.93;;
7267;SDS011;3675;43.276;27.962;2024-03-02T10:07:09;11.38;;;5.65;;
7267;SDS011;3675;43.276;27.962;2024-03-02T10:09:42;15.52;;;6.72;;
7267;SDS011;3675;43.276;27.962;2024-03-02T10:12:15;9.45;;;6.00;;
7267;SDS011;3675;43.276;27.962;2024-03-02T10:14:49;14.95;;;6.50;;
7267;SDS011;3675;43.276;27.962;2024-03-02T10:17:34;15.80;;;6.10;;
7267;SDS011;3675;43.276;27.962;2024-03-02T10:20:21;14.18;;;7.30;;
7267;SDS011;3675;43.276;27.962;2024-03-02T10:22:53;10.85;;;5.55;;
7267;SDS011;3675;43.276;27.962;2024-03-02T10:25:30;9.90;;;6.30;;
7267;SDS011;3675;43.276;27.962;2024-03-02T10:28:17;12.00;;;6.80;;
7267;SDS011;3675;43.276;27.962;2024-03-02T10:30:50;9.98;;;5.85;;
7267;SDS011;3675;43.276;27.962;2024-03-02T10:35:54;9.93;;;5.75;;
7267;SDS011;3675;43.276;27.962;2024-03-02T10:38:26;15.95;;;6.82;;
7267;SDS011;3675;43.276;27.962;2024-03-02T10:40:57;11.23;;;5.80;;
7267;SDS011;3675;43.276;27.962;2024-03-02T10:43:31;12.80;;;6.35;;
7267;SDS011;3675;43.276;27.962;2024-03-02T10:46:05;15.82;;;5.75;;
7267;SDS011;3675;43.276;27.962;2024-03-02T10:48:36;12.88;;;5.88;;
7267;SDS011;3675;43.276;27.962;2024-03-02T10:51:10;13.38;;;6.43;;
7267;SDS011;3675;43.276;27.962;2024-03-02T10:53:42;12.52;;;6.63;;
7267;SDS011;3675;43.276;27.962;2024-03-02T10:56:13;13.60;;;6.45;;
7267;SDS011;3675;43.276;27.962;2024-03-02T10:58:53;16.05;;;6.78;;
7267;SDS011;3675;43.276;27.962;2024-03-02T11:01:34;13.57;;;7.07;;
7267;SDS011;3675;43.276;27.962;2024-03-02T11:04:09;14.45;;;7.10;;
7267;SDS011;3675;43.276;27.962;2024-03-02T11:06:42;14.90;;;7.68;;
7267;SDS011;3675;43.276;27.962;2024-03-02T11:09:19;10.52;;;6.28;;
7267;SDS011;3675;43.276;27.962;2024-03-02T11:11:54;12.80;;;5.78;;
7267;SDS011;3675;43.276;27.962;2024-03-02T11:14:36;9.70;;;5.75;;
7267;SDS011;3675;43.276;27.962;2024-03-02T11:17:14;15.57;;;6.18;;
7267;SDS011;3675;43.276;27.962;2024-03-02T11:19:45;13.25;;;5.95;;
7267;SDS011;3675;43.276;27.962;2024-03-02T11:22:17;10.38;;;6.00;;
7267;SDS011;3675;43.276;27.962;2024-03-02T11:24:49;12.00;;;5.15;;
7267;SDS011;3675;43.276;27.962;2024-03-02T11:33:27;14.82;;;6.63;;
7267;SDS011;3675;43.276;27.962;2024-03-02T11:35:58;10.23;;;6.68;;
7267;SDS011;3675;43.276;27.962;2024-03-02T11:38:31;17.20;;;5.78;;
7267;SDS011;3675;43.276;27.962;2024-03-02T11:41:05;17.63;;;6.05;;
7267;SDS011;3675;43.276;27.962;2024-03-02T11:43:38;15.00;;;7.30;;
7267;SDS011;3675;43.276;27.962;2024-03-02T11:46:11;12.63;;;6.22;;
7267;SDS011;3675;43.276;27.962;2024-03-02T11:48:45;15.88;;;6.55;;
7267;SDS011;3675;43.276;27.962;2024-03-02T11:51:17;10.77;;;5.80;;
7267;SDS011;3675;43.276;27.962;2024-03-02T11:53:47;13.27;;;6.50;;
7267;SDS011;3675;43.276;27.962;2024-03-02T11:56:20;12.23;;;5.88;;
7267;SDS011;3675;43.276;27.962;2024-03-02T11:58:52;10.73;;;5.35;;
7267;SDS011;3675;43.276;27.962;2024-03-02T12:01:25;12.05;;;6.43;;
7267;SDS011;3675;43.276;27.962;2024-03-02T12:03:58;13.15;;;6.20;;
7267;SDS011;3675;43.276;27.962;2024-03-02T12:06:30;12.70;;;6.65;;
7267;SDS011;3675;43.276;27.962;2024-03-02T12:09:01;10.55;;;5.80;;
7267;SDS011;3675;43.276;27.962;2024-03-02T12:11:33;14.48;;;6.38;;
7267;SDS011;3675;43.276;27.962;2024-03-02T12:14:04;10.32;;;6.75;;
7267;SDS011;3675;43.276;27.962;2024-03-02T12:16:43;17.33;;;6.25;;
7267;SDS011;3675;43.276;27.962;2024-03-02T12:19:17;14.82;;;6.50;;
7267;SDS011;3675;43.276;27.962;2024-03-02T12:21:48;9.82;;;5.95;;
7267;SDS011;3675;43.276;27.962;2024-03-02T12:24:19;13.52;;;5.72;;
7267;SDS011;3675;43.276;27.962;2024-03-02T12:26:51;10.38;;;5.65;;
7267;SDS011;3675;43.276;27.962;2024-03-02T12:29:23;10.55;;;6.35;;
7267;SDS011;3675;43.276;27.962;2024-03-02T12:31:54;11.02;;;6.18;;
7267;SDS011;3675;43.276;27.962;2024-03-02T12:34:27;9.63;;;5.38;;
7267;SDS011;3675;43.276;27.962;2024-03-02T12:39:29;11.25;;;6.40;;
7267;SDS011;3675;43.276;27.962;2024-03-02T12:42:03;10.63;;;6.03;;
7267;SDS011;3675;43.276;27.962;2024-03-02T12:44:35;11.30;;;5.93;;
7267;SDS011;3675;43.276;27.962;2024-03-02T12:47:06;10.85;;;7.07;;
7267;SDS011;3675;43.276;27.962;2024-03-02T12:49:42;9.63;;;5.57;;
7267;SDS011;3675;43.276;27.962;2024-03-02T12:52:16;14.60;;;7.25;;
7267;SDS011;3675;43.276;27.962;2024-03-02T12:54:49;14.20;;;6.97;;
7267;SDS011;3675;43.276;27.962;2024-03-02T12:57:25;17.45;;;6.78;;
7267;SDS011;3675;43.276;27.962;2024-03-02T12:59:58;14.30;;;6.80;;
7267;SDS011;3675;43.276;27.962;2024-03-02T13:02:29;16.67;;;7.30;;
7267;SDS011;3675;43.276;27.962;2024-03-02T13:05:04;13.88;;;6.95;;
7267;SDS011;3675;43.276;27.962;2024-03-02T13:07:38;14.88;;;7.00;;
7267;SDS011;3675;43.276;27.962;2024-03-02T13:10:09;14.20;;;6.10;;
7267;SDS011;3675;43.276;27.962;2024-03-02T13:12:43;17.00;;;6.85;;
7267;SDS011;3675;43.276;27.962;2024-03-02T13:15:16;10.80;;;7.10;;
7267;SDS011;3675;43.276;27.962;2024-03-02T13:17:47;12.32;;;6.70;;
7267;SDS011;3675;43.276;27.962;2024-03-02T13:20:33;16.85;;;8.05;;
7267;SDS011;3675;43.276;27.962;2024-03-02T13:23:13;18.02;;;7.95;;
7267;SDS011;3675;43.276;27.962;2024-03-02T13:25:53;14.70;;;7.85;;
7267;SDS011;3675;43.276;27.962;2024-03-02T13:28:37;14.85;;;7.25;;
7267;SDS011;3675;43.276;27.962;2024-03-02T13:31:36;14.60;;;9.07;;
7267;SDS011;3675;43.276;27.962;2024-03-02T13:34:21;15.95;;;7.63;;
7267;SDS011;3675;43.276;27.962;2024-03-02T13:37:07;15.73;;;7.82;;
7267;SDS011;3675;43.276;27.962;2024-03-02T13:40:02;13.75;;;6.68;;
7267;SDS011;3675;43.276;27.962;2024-03-02T13:42:50;11.98;;;7.38;;
7267;SDS011;3675;43.276;27.962;2024-03-02T13:45:25;10.43;;;7.10;;
7267;SDS011;3675;43.276;27.962;2024-03-02T13:48:19;14.75;;;8.18;;
7267;SDS011;3675;43.276;27.962;2024-03-02T13:50:50;11.48;;;7.47;;
7267;SDS011;3675;43.276;27.962;2024-03-02T13:53:24;14.60;;;7.85;;
7267;SDS011;3675;43.276;27.962;2024-03-02T13:56:00;11.07;;;7.70;;
7267;SDS011;3675;43.276;27.962;2024-03-02T13:58:43;17.45;;;7.82;;
7267;SDS011;3675;43.276;27.962;2024-03-02T14:01:15;12.77;;;8.23;;
7267;SDS011;3675;43.276;27.962;2024-03-02T14:03:47;18.88;;;9.13;;
7267;SDS011;3675;43.276;27.962;2024-03-02T14:06:24;14.88;;;7.30;;
7267;SDS011;3675;43.276;27.962;2024-03-02T14:08:59;13.40;;;6.75;;
7267;SDS011;3675;43.276;27.962;2024-03-02T14:11:33;12.32;;;7.35;;
7267;SDS011;3675;43.276;27.962;2024-03-02T14:14:05;11.98;;;7.65;;
7267;SDS011;3675;43.276;27.962;2024-03-02T14:16:37;15.05;;;8.30;;
7267;SDS011;3675;43.276;27.962;2024-03-02T14:19:08;11.27;;;7.22;;
7267;SDS011;3675;43.276;27.962;2024-03-02T14:21:41;15.70;;;7.95;;
7267;SDS011;3675;43.276;27.962;2024-03-02T14:24:15;16.30;;;9.00;;
7267;SDS011;3675;43.276;27.962;2024-03-02T14:26:51;18.20;;;7.57;;
7267;SDS011;3675;43.276;27.962;2024-03-02T14:29:36;11.77;;;6.90;;
7267;SDS011;3675;43.276;27.962;2024-03-02T14:32:07;15.32;;;7.30;;
7267;SDS011;3675;43.276;27.962;2024-03-02T14:34:39;19.15;;;6.97;;
7267;SDS011;3675;43.276;27.962;2024-03-02T14:37:10;12.95;;;6.90;;
7267;SDS011;3675;43.276;27.962;2024-03-02T14:39:44;13.57;;;6.82;;
7267;SDS011;3675;43.276;27.962;2024-03-02T14:42:15;18.17;;;9.02;;
7267;SDS011;3675;43.276;27.962;2024-03-02T14:44:46;14.30;;;8.27;;
7267;SDS011;3675;43.276;27.962;2024-03-02T14:47:18;17.80;;;10.65;;
7267;SDS011;3675;43.276;27.962;2024-03-02T14:49:52;18.20;;;8.77;;
7267;SDS011;3675;43.276;27.962;2024-03-02T14:52:23;15.48;;;8.30;;
7267;SDS011;3675;43.276;27.962;2024-03-02T14:54:57;23.23;;;13.63;;
7267;SDS011;3675;43.276;27.962;2024-03-02T14:57:30;15.63;;;8.52;;
7267;SDS011;3675;43.276;27.962;2024-03-02T15:00:02;13.13;;;7.43;;
7267;SDS011;3675;43.276;27.962;2024-03-02T15:02:35;15.68;;;7.53;;
7267;SDS011;3675;43.276;27.962;2024-03-02T15:05:07;14.45;;;7.45;;
7267;SDS011;3675;43.276;27.962;2024-03-02T15:07:38;14.30;;;7.78;;
7267;SDS011;3675;43.276;27.962;2024-03-02T15:10:13;14.35;;;7.95;;
7267;SDS011;3675;43.276;27.962;2024-03-02T15:15:15;11.35;;;6.38;;
7267;SDS011;3675;43.276;27.962;2024-03-02T15:17:47;18.55;;;9.57;;
7267;SDS011;3675;43.276;27.962;2024-03-02T15:20:19;10.73;;;6.82;;
7267;SDS011;3675;43.276;27.962;2024-03-02T15:22:51;15.98;;;8.20;;
7267;SDS011;3675;43.276;27.962;2024-03-02T15:25:25;19.95;;;9.98;;
7267;SDS011;3675;43.276;27.962;2024-03-02T15:30:27;16.60;;;8.13;;
7267;SDS011;3675;43.276;27.962;2024-03-02T15:32:59;23.33;;;11.57;;
7267;SDS011;3675;43.276;27.962;2024-03-02T15:35:36;15.80;;;10.95;;
7267;SDS011;3675;43.276;27.962;2024-03-02T15:38:07;12.40;;;7.30;;
7267;SDS011;3675;43.276;27.962;2024-03-02T15:40:57;22.63;;;13.23;;